Ontario International Airport
KONT : now visible

Airfield :











YOU CAN JOIN US ON...

 
LOGIN :

Register | Disclaimer

   EN    FR    IT 

 









Legend :    VFR   Marginal VFR   IFR   Intensive IFR   Very Intensive IFR
Visi :
Ceiling :
>= 8 km
>= 3000ft
5 to 8 km
1000 to 3000 ft
1500m to 5 km
500 to 1000 ft
800 to 1500m
200 to 500 ft
< 800m
< 200 ft
Symbols :   Thunderstorms  Fog  Heavy snow  Heavy precipitations  Wind > 20 kt







- Airport Elevation : 944 ft
- IATA code : ONT


KONT - Ontario International

CURRENT METAR :
  • 201153Z VRB03KT 10SM FEW180 SCT230 06/M02 A3003 RMK AO2 SLP171 T00561017 10089 20050 56019

EXPIRED METARs :
  • 201053Z 05004KT 10SM FEW180 SCT230 06/M01 A3005 RMK AO2 SLP176 T00561011
  • 200953Z VRB06KT 10SM FEW180 SCT230 05/M01 A3006 RMK AO2 SLP182 T00501011

TAF KONT
Valid from the 20 at 12:00 until the 21 at 18:00 UTC


201143Z 2012/2118 VRB05KT P6SM SCT040 SCT200
FM201500 08006KT P6SM SCT035 SCT200
FM201800 22010KT P6SM VCSH SCT025 BKN035
FM202300 24010G18KT P6SM -SHRA SCT015 OVC025
FM210400 26007KT P6SM VCSH SCT025 BKN035
FM210900 VRB05KT P6SM SCT025 SCT035
KZLA FIR / North America



MET'MAP, your aeronautical weather chart ! - Copyright ORBIFLY December 2007 - Disclaimer

ORBIFLY MET'MAP TEAM :

Programming & Development : Alexandra Zaïnal
Concept & Development : Baudouin d'Aumeries
Co-Development & Prog : Marc-Olivier Méhu
Technical & hardware support : Manuel Goepfert

Contact : metmap@orbifly.com




SOURCES & CREDITS :

   NOAA       Earth
Advisory